createdAt,value
2018-02-02T00:01:34.387Z,99626.79
2018-02-02T00:04:04.438Z,99632.86
2018-02-02T00:06:33.561Z,99632.48
2018-02-02T00:09:02.476Z,99624.70
2018-02-02T00:11:31.739Z,99628.17
2018-02-02T00:14:00.810Z,99624.80
2018-02-02T00:16:29.753Z,99621.94
2018-02-02T00:18:59.363Z,99623.23
2018-02-02T00:21:28.310Z,99622.52
2018-02-02T00:23:57.111Z,99618.63
2018-02-02T00:26:26.013Z,99618.91
2018-02-02T00:28:54.861Z,99619.63
2018-02-02T00:31:23.857Z,99613.13
2018-02-02T00:33:52.631Z,99619.72
2018-02-02T00:36:21.627Z,99616.95
2018-02-02T00:38:50.934Z,99617.75
2018-02-02T00:41:19.813Z,99615.02
2018-02-02T00:43:49.332Z,99616.62
2018-02-02T00:46:18.211Z,99625.84
2018-02-02T00:48:47.090Z,99626.55
2018-02-02T00:51:20.555Z,99627.56
2018-02-02T00:53:49.746Z,99626.36
2018-02-02T00:56:18.728Z,99630.30
2018-02-02T00:58:47.624Z,99626.69
2018-02-02T01:01:16.440Z,99631.09
2018-02-02T01:03:46.975Z,99631.44
2018-02-02T01:06:15.812Z,99626.14
2018-02-02T01:08:44.942Z,99626.78
2018-02-02T01:11:14.052Z,99627.06
2018-02-02T01:13:42.821Z,99626.33
2018-02-02T01:16:11.710Z,99622.08
2018-02-02T01:18:42.430Z,99618.77
2018-02-02T01:21:11.202Z,99617.34
2018-02-02T01:23:41.137Z,99619.80
2018-02-02T01:26:10.000Z,99625.04
2018-02-02T01:28:40.013Z,99625.84
2018-02-02T01:31:09.107Z,99626.64
2018-02-02T01:33:37.980Z,99631.69
2018-02-02T01:36:07.067Z,99632.33
2018-02-02T01:38:35.891Z,99630.97
2018-02-02T01:41:04.759Z,99626.70
2018-02-02T01:43:34.056Z,99630.31
2018-02-02T01:46:05.061Z,99631.66
2018-02-02T01:48:35.500Z,99627.71
2018-02-02T01:51:04.813Z,99626.13
2018-02-02T01:53:33.704Z,99618.42
2018-02-02T01:56:03.514Z,99614.18
2018-02-02T01:58:32.917Z,99610.73
2018-02-02T02:01:02.030Z,99614.04
2018-02-02T02:03:30.993Z,99610.83
2018-02-02T02:06:00.062Z,99601.86
2018-02-02T02:08:28.935Z,99607.32
2018-02-02T02:10:58.017Z,99617.20
2018-02-02T02:13:27.440Z,99613.93
2018-02-02T02:15:56.177Z,99616.67
2018-02-02T02:18:25.248Z,99611.44
2018-02-02T02:20:54.735Z,99619.13
2018-02-02T02:23:23.549Z,99624.97
2018-02-02T02:25:52.338Z,99623.66
2018-02-02T02:28:21.442Z,99616.83
2018-02-02T02:30:50.304Z,99615.72
2018-02-02T02:33:19.080Z,99613.34
2018-02-02T02:35:48.202Z,99623.64
2018-02-02T02:38:17.020Z,99629.59
2018-02-02T02:40:45.808Z,99623.81
2018-02-02T02:43:14.878Z,99621.16
2018-02-02T02:45:43.688Z,99633.02
2018-02-02T02:48:12.541Z,99627.19
2018-02-02T02:50:42.933Z,99619.86
2018-02-02T02:53:11.741Z,99620.94
2018-02-02T02:55:40.621Z,99617.34
2018-02-02T02:58:09.813Z,99613.47
2018-02-02T03:00:38.614Z,99615.34
2018-02-02T03:03:07.507Z,99618.73
2018-02-02T03:05:36.756Z,99623.96
2018-02-02T03:08:06.557Z,99622.11
2018-02-02T03:10:35.561Z,99629.88
2018-02-02T03:13:05.747Z,99626.22
2018-02-02T03:15:35.582Z,99632.47
2018-02-02T03:18:05.770Z,99631.03
2018-02-02T03:20:34.837Z,99631.59
2018-02-02T03:23:04.913Z,99633.89
2018-02-02T03:25:33.712Z,99630.25
2018-02-02T03:28:03.633Z,99628.22
2018-02-02T03:30:32.639Z,99629.63
2018-02-02T03:33:01.728Z,99623.38
2018-02-02T03:35:30.692Z,99623.18
2018-02-02T03:37:59.479Z,99617.77
2018-02-02T03:40:28.305Z,99618.20
2018-02-02T03:42:57.380Z,99618.27
2018-02-02T03:45:26.184Z,99616.41
2018-02-02T03:47:54.969Z,99616.77
2018-02-02T03:50:24.157Z,99623.48
2018-02-02T03:52:53.162Z,99620.87
2018-02-02T03:55:21.968Z,99625.19
2018-02-02T03:57:50.840Z,99630.31
2018-02-02T04:00:19.932Z,99631.09
2018-02-02T04:02:48.736Z,99628.59
2018-02-02T04:05:17.899Z,99623.16
2018-02-02T04:07:46.723Z,99619.53
2018-02-02T04:10:15.723Z,99620.31
2018-02-02T04:12:46.068Z,99619.55
2018-02-02T04:15:14.953Z,99615.34
2018-02-02T04:17:43.774Z,99619.77
2018-02-02T04:20:12.945Z,99615.86
2018-02-02T04:22:41.724Z,99620.19
2018-02-02T04:25:10.521Z,99615.86
2018-02-02T04:27:39.938Z,99614.02
2018-02-02T04:30:08.731Z,99619.64
2018-02-02T04:32:37.524Z,99626.95
2018-02-02T04:35:07.674Z,99625.48
2018-02-02T04:37:37.797Z,99623.23
2018-02-02T04:40:06.689Z,99620.95
2018-02-02T04:42:36.008Z,99620.20
2018-02-02T04:45:06.315Z,99622.38
2018-02-02T04:47:35.788Z,99617.27
2018-02-02T04:50:06.292Z,99616.33
2018-02-02T04:52:35.613Z,99617.19
2018-02-02T04:55:05.319Z,99622.88
2018-02-02T04:57:34.913Z,99624.03
2018-02-02T05:00:05.029Z,99621.64
2018-02-02T05:02:34.974Z,99621.85
2018-02-02T05:05:04.040Z,99626.97
2018-02-02T05:07:32.969Z,99612.30
2018-02-02T05:10:02.622Z,99616.50
2018-02-02T05:12:33.069Z,99607.73
2018-02-02T05:15:02.106Z,99612.77
2018-02-02T05:17:31.202Z,99610.11
2018-02-02T05:20:00.384Z,99611.41
2018-02-02T05:22:29.177Z,99602.80
2018-02-02T05:24:58.176Z,99595.30
2018-02-02T05:27:27.240Z,99591.28
2018-02-02T05:29:56.074Z,99582.95
2018-02-02T05:32:24.907Z,99588.09
2018-02-02T05:34:54.326Z,99592.48
2018-02-02T05:37:23.149Z,99586.41
2018-02-02T05:39:54.194Z,99589.79
2018-02-02T05:42:24.242Z,99590.41
2018-02-02T05:44:54.041Z,99596.25
2018-02-02T05:47:24.176Z,99577.38
2018-02-02T05:49:55.234Z,99589.25
2018-02-02T05:52:24.870Z,99584.51
2018-02-02T05:54:54.999Z,99581.06
2018-02-02T05:57:24.439Z,99580.03
2018-02-02T05:59:54.474Z,99581.91
2018-02-02T06:02:24.061Z,99570.69
2018-02-02T06:04:53.332Z,99558.45
2018-02-02T06:07:23.203Z,99573.55
2018-02-02T06:09:52.939Z,99563.88
2018-02-02T06:12:22.106Z,99567.67
2018-02-02T06:14:50.965Z,99561.10
2018-02-02T06:17:20.216Z,99569.67
2018-02-02T06:19:50.223Z,99572.95
2018-02-02T06:22:19.461Z,99580.69
2018-02-02T06:24:48.690Z,99583.64
2018-02-02T06:27:17.509Z,99574.58
2018-02-02T06:29:46.281Z,99576.90
2018-02-02T06:32:15.550Z,99579.39
2018-02-02T06:34:44.396Z,99573.92
2018-02-02T06:37:13.621Z,99579.33
2018-02-02T06:39:42.429Z,99583.45
2018-02-02T06:42:11.447Z,99582.01
2018-02-02T06:44:41.565Z,99587.17
2018-02-02T06:47:10.512Z,99592.92
2018-02-02T06:49:39.465Z,99592.45
2018-02-02T06:52:08.233Z,99591.05
2018-02-02T06:54:37.070Z,99579.49
2018-02-02T06:57:06.171Z,99576.09
2018-02-02T06:59:34.985Z,99578.84
2018-02-02T07:02:04.896Z,99576.73
2018-02-02T07:04:34.065Z,99574.22
2018-02-02T07:07:03.209Z,99576.24
2018-02-02T07:09:32.704Z,99579.77
2018-02-02T07:12:02.702Z,99579.09
2018-02-02T07:14:32.560Z,99584.28
2018-02-02T07:17:01.939Z,99585.59
2018-02-02T07:19:31.052Z,99585.86
2018-02-02T07:21:59.937Z,99589.92
2018-02-02T07:24:28.974Z,99581.71
2018-02-02T07:26:58.081Z,99591.63
2018-02-02T07:29:26.872Z,99593.35
2018-02-02T07:31:58.580Z,99592.27
2018-02-02T07:34:27.675Z,99598.93
2018-02-02T07:36:56.609Z,99594.64
2018-02-02T07:39:25.472Z,99593.06
2018-02-02T07:41:54.564Z,99597.05
2018-02-02T07:44:23.416Z,99597.83
2018-02-02T07:46:52.202Z,99595.05
2018-02-02T07:49:21.269Z,99593.72
2018-02-02T07:51:50.384Z,99596.77
2018-02-02T07:54:19.177Z,99595.68
2018-02-02T07:56:49.394Z,99592.55
2018-02-02T07:59:18.342Z,99586.08
2018-02-02T08:01:47.193Z,99593.13
2018-02-02T08:04:16.401Z,99586.40
2018-02-02T08:06:45.237Z,99590.73
2018-02-02T08:09:14.017Z,99581.34
2018-02-02T08:11:43.140Z,99578.51
2018-02-02T08:14:11.996Z,99577.85
2018-02-02T08:16:40.797Z,99589.47
2018-02-02T08:19:10.046Z,99594.36
2018-02-02T08:21:38.985Z,99585.08
2018-02-02T08:24:08.165Z,99582.48
2018-02-02T08:26:38.501Z,99589.20
2018-02-02T08:29:07.298Z,99579.88
2018-02-02T08:31:37.121Z,99591.98
2018-02-02T08:34:06.383Z,99595.16
2018-02-02T08:36:35.252Z,99597.27
2018-02-02T08:39:05.407Z,99599.94
2018-02-02T08:41:34.593Z,99593.78
2018-02-02T08:44:04.195Z,99601.56
2018-02-02T08:46:33.053Z,99605.41
2018-02-02T08:49:02.496Z,99605.34
2018-02-02T08:51:31.652Z,99607.70
2018-02-02T08:54:03.385Z,99608.30
2018-02-02T08:56:32.702Z,99604.31
2018-02-02T08:59:02.142Z,99609.65
2018-02-02T09:01:35.658Z,99615.19
2018-02-02T09:04:05.175Z,99620.11
2018-02-02T09:06:34.784Z,99619.47
2018-02-02T09:09:05.964Z,99622.66
2018-02-02T09:11:34.820Z,99628.34
2018-02-02T09:14:04.466Z,99628.42
2018-02-02T09:16:33.588Z,99625.75
2018-02-02T09:19:02.822Z,99626.36
2018-02-02T09:21:32.285Z,99629.89
2018-02-02T09:24:02.304Z,99628.79
2018-02-02T09:26:31.260Z,99631.81
2018-02-02T09:29:00.052Z,99640.38
2018-02-02T09:31:28.825Z,99636.69
2018-02-02T09:33:57.973Z,99641.47
2018-02-02T09:37:29.578Z,99643.27
2018-02-02T09:39:58.688Z,99639.89
2018-02-02T09:42:27.474Z,99641.83
2018-02-02T09:44:57.834Z,99649.98
2018-02-02T09:47:27.945Z,99658.16
2018-02-02T09:49:58.444Z,99652.09
2018-02-02T09:52:27.241Z,99649.62
2018-02-02T09:54:56.125Z,99648.52
2018-02-02T09:57:25.043Z,99638.94
2018-02-02T09:59:53.933Z,99637.91
2018-02-02T10:02:22.974Z,99635.47
2018-02-02T10:04:51.774Z,99630.28
2018-02-02T10:07:20.972Z,99633.47
2018-02-02T10:09:49.773Z,99637.20
2018-02-02T10:12:18.692Z,99648.09
2018-02-02T10:14:47.801Z,99651.95
2018-02-02T10:17:16.769Z,99652.59
2018-02-02T10:19:46.018Z,99652.84
2018-02-02T10:22:14.876Z,99654.77
2018-02-02T10:24:43.884Z,99660.91
2018-02-02T10:27:13.082Z,99667.66
2018-02-02T10:29:41.887Z,99661.92
2018-02-02T10:32:10.698Z,99671.72
2018-02-02T10:34:39.600Z,99674.91
2018-02-02T10:37:08.582Z,99669.12
2018-02-02T10:39:37.708Z,99669.11
2018-02-02T10:42:06.537Z,99666.42
2018-02-02T10:44:36.625Z,99669.64
2018-02-02T10:47:05.738Z,99660.45
2018-02-02T10:49:34.598Z,99660.97
2018-02-02T10:52:04.364Z,99672.73
2018-02-02T10:54:33.723Z,99667.77
2018-02-02T10:57:03.171Z,99675.23
2018-02-02T10:59:32.025Z,99665.81
2018-02-02T11:02:05.187Z,99660.70
2018-02-02T11:04:34.437Z,99659.34
2018-02-02T11:07:03.709Z,99656.91
2018-02-02T11:09:33.086Z,99647.80
2018-02-02T11:12:04.020Z,99651.55
2018-02-02T11:14:33.797Z,99650.58
2018-02-02T11:17:03.418Z,99648.45
2018-02-02T11:19:32.429Z,99645.73
2018-02-02T11:22:03.107Z,99649.36
2018-02-02T11:24:32.436Z,99643.16
2018-02-02T11:27:01.573Z,99649.74
2018-02-02T11:29:30.452Z,99640.60
2018-02-02T11:31:59.574Z,99633.27
2018-02-02T11:34:28.448Z,99630.44
2018-02-02T11:36:57.276Z,99619.89
2018-02-02T11:39:26.077Z,99621.36
2018-02-02T11:41:54.931Z,99613.84
2018-02-02T11:44:23.960Z,99613.67
2018-02-02T11:46:53.173Z,99612.80
2018-02-02T11:49:22.528Z,99612.86
2018-02-02T11:51:52.331Z,99613.73
2018-02-02T11:54:21.460Z,99604.70
2018-02-02T11:56:50.609Z,99611.78
2018-02-02T11:59:19.697Z,99608.97
2018-02-02T12:01:50.138Z,99615.59
2018-02-02T12:04:19.223Z,99609.16
2018-02-02T12:06:48.210Z,99611.46
2018-02-02T12:09:17.661Z,99607.69
2018-02-02T12:11:46.680Z,99610.33
2018-02-02T12:14:15.733Z,99608.23
2018-02-02T12:16:45.342Z,99605.96
2018-02-02T12:19:14.450Z,99608.68
2018-02-02T12:21:43.637Z,99599.73
2018-02-02T12:24:13.174Z,99596.80
2018-02-02T12:26:42.509Z,99597.14
2018-02-02T12:29:11.497Z,99594.75
2018-02-02T12:31:42.116Z,99591.57
2018-02-02T12:34:11.239Z,99589.59
2018-02-02T12:36:40.353Z,99593.64
2018-02-02T12:39:09.605Z,99594.27
2018-02-02T12:41:38.589Z,99591.30
2018-02-02T12:44:07.726Z,99587.66
2018-02-02T12:46:36.723Z,99573.45
2018-02-02T12:49:06.097Z,99583.03
2018-02-02T12:51:35.327Z,99583.56
2018-02-02T12:54:06.325Z,99580.25
2018-02-02T12:56:36.203Z,99585.94
2018-02-02T12:59:05.014Z,99571.09
2018-02-02T13:01:34.108Z,99568.86
2018-02-02T13:04:04.346Z,99578.08
2018-02-02T13:06:33.498Z,99584.71
2018-02-02T13:09:02.860Z,99577.36
2018-02-02T13:11:31.976Z,99575.90
2018-02-02T13:14:00.972Z,99574.33
2018-02-02T13:16:30.181Z,99576.73
2018-02-02T13:18:59.048Z,99579.40
2018-02-02T13:21:27.978Z,99584.03
2018-02-02T13:23:57.080Z,99580.55
2018-02-02T13:26:25.921Z,99580.44
2018-02-02T13:28:54.781Z,99576.50
2018-02-02T13:31:24.101Z,99582.52
2018-02-02T13:33:53.711Z,99580.70
2018-02-02T13:36:22.550Z,99580.59
2018-02-02T13:38:51.698Z,99578.04
2018-02-02T13:41:20.622Z,99576.20
2018-02-02T13:43:49.477Z,99584.42
2018-02-02T13:46:18.635Z,99584.78
2018-02-02T13:48:47.517Z,99583.47
2018-02-02T13:51:16.336Z,99584.56
2018-02-02T13:53:47.512Z,99585.52
2018-02-02T13:56:16.345Z,99581.48
2018-02-02T13:58:45.191Z,99579.48
2018-02-02T14:01:14.427Z,99586.69
2018-02-02T14:03:44.564Z,99579.88
2018-02-02T14:06:13.339Z,99584.76
2018-02-02T14:08:42.509Z,99592.04
2018-02-02T14:11:11.379Z,99591.23
2018-02-02T14:13:41.785Z,99590.97
2018-02-02T14:16:10.919Z,99595.52
2018-02-02T14:18:39.733Z,99590.42
2018-02-02T14:21:08.584Z,99587.19
2018-02-02T14:23:37.993Z,99588.23
2018-02-02T14:26:06.737Z,99586.29
2018-02-02T14:28:36.906Z,99590.62
2018-02-02T14:31:06.151Z,99603.11
2018-02-02T14:33:35.073Z,99602.25
2018-02-02T14:36:06.258Z,99610.31
2018-02-02T14:38:35.426Z,99602.83
2018-02-02T14:41:04.569Z,99606.39
2018-02-02T14:43:34.059Z,99613.09
2018-02-02T14:46:03.811Z,99600.55
2018-02-02T14:48:32.674Z,99602.53
2018-02-02T14:51:01.909Z,99600.80
2018-02-02T14:53:32.081Z,99604.69
2018-02-02T14:56:00.879Z,99601.55
2018-02-02T14:58:29.721Z,99600.08
2018-02-02T15:00:59.188Z,99603.36
2018-02-02T15:03:28.117Z,99596.37
2018-02-02T15:05:56.956Z,99596.59
2018-02-02T15:08:26.272Z,99606.61
2018-02-02T15:10:55.062Z,99615.14
2018-02-02T15:13:24.060Z,99601.72
2018-02-02T15:15:53.252Z,99613.72
2018-02-02T15:18:22.587Z,99610.36
2018-02-02T15:20:51.505Z,99606.83
2018-02-02T15:23:20.786Z,99607.20
2018-02-02T15:25:49.670Z,99602.78
2018-02-02T15:28:18.538Z,99614.50
2018-02-02T15:30:47.932Z,99615.86
2018-02-02T15:33:19.119Z,99618.88
2018-02-02T15:35:48.141Z,99615.70
2018-02-02T15:38:17.389Z,99625.27
2018-02-02T15:40:46.505Z,99617.00
2018-02-02T15:43:15.376Z,99630.92
2018-02-02T15:45:46.258Z,99628.67
2018-02-02T15:48:15.180Z,99632.68
2018-02-02T15:50:44.073Z,99632.53
2018-02-02T15:53:13.354Z,99641.16
2018-02-02T15:56:44.794Z,99631.49
2018-02-02T15:59:14.018Z,99643.29
2018-02-02T16:01:42.940Z,99637.41
2018-02-02T16:04:11.947Z,99638.91
2018-02-02T16:06:42.495Z,99642.14
2018-02-02T16:11:45.642Z,99648.06
2018-02-02T16:15:17.432Z,99652.38
2018-02-02T16:17:48.159Z,99646.24
2018-02-02T16:20:17.064Z,99646.53
2018-02-02T16:22:46.480Z,99657.03
2018-02-02T16:25:15.316Z,99657.48
2018-02-02T16:27:44.134Z,99655.44
2018-02-02T16:30:13.345Z,99649.70
2018-02-02T16:32:43.766Z,99656.98
2018-02-02T16:35:12.543Z,99653.77
2018-02-02T16:37:41.733Z,99655.31
2018-02-02T16:40:10.741Z,99658.64
2018-02-02T16:42:41.197Z,99658.97
2018-02-02T16:45:10.544Z,99654.85
2018-02-02T16:47:39.375Z,99662.62
2018-02-02T16:50:08.482Z,99661.69
2018-02-02T16:52:38.794Z,99662.83
2018-02-02T16:55:07.768Z,99666.20
2018-02-02T16:57:38.435Z,99668.17
2018-02-02T17:00:08.001Z,99675.17
2018-02-02T17:02:37.623Z,99673.91
2018-02-02T17:05:07.241Z,99686.14
2018-02-02T17:07:36.817Z,99674.31
2018-02-02T17:10:06.885Z,99674.41
2018-02-02T17:12:37.150Z,99675.88
2018-02-02T17:15:07.436Z,99673.49
2018-02-02T17:17:38.543Z,99674.50
2018-02-02T17:20:08.545Z,99672.23
2018-02-02T17:22:38.223Z,99671.78
2018-02-02T17:25:07.289Z,99676.17
2018-02-02T17:27:38.220Z,99674.31
2018-02-02T17:30:07.628Z,99672.69
2018-02-02T17:32:36.589Z,99675.04
2018-02-02T17:35:06.190Z,99680.48
2018-02-02T17:37:35.399Z,99683.55
2018-02-02T17:40:05.507Z,99679.97
2018-02-02T17:42:36.787Z,99684.41
2018-02-02T17:45:06.320Z,99687.36
2018-02-02T17:47:35.841Z,99688.51
2018-02-02T17:50:05.614Z,99684.41
2018-02-02T17:52:36.885Z,99688.37
2018-02-02T17:55:05.744Z,99687.34
2018-02-02T17:57:35.278Z,99688.87
2018-02-02T18:00:05.483Z,99691.48
2018-02-02T18:02:34.769Z,99693.64
2018-02-02T18:05:04.494Z,99705.43
2018-02-02T18:07:33.936Z,99715.60
2018-02-02T18:10:04.053Z,99720.98
2018-02-02T18:12:33.738Z,99729.30
2018-02-02T18:15:03.274Z,99729.02
2018-02-02T18:17:32.268Z,99724.79
2018-02-02T18:20:02.342Z,99727.24
2018-02-02T18:22:32.453Z,99727.06
2018-02-02T18:25:02.084Z,99729.16
2018-02-02T18:27:30.894Z,99731.73
2018-02-02T18:30:01.468Z,99734.09
2018-02-02T18:32:30.458Z,99728.11
2018-02-02T18:35:00.257Z,99733.73
2018-02-02T18:37:29.450Z,99739.70
2018-02-02T18:39:58.452Z,99740.25
2018-02-02T18:42:27.313Z,99742.26
2018-02-02T18:44:56.562Z,99742.76
2018-02-02T18:47:25.824Z,99741.81
2018-02-02T18:49:54.620Z,99742.49
2018-02-02T18:52:24.049Z,99746.77
2018-02-02T18:54:53.016Z,99746.50
2018-02-02T18:57:22.303Z,99744.67
2018-02-02T19:00:22.504Z,99748.20
2018-02-02T19:02:52.355Z,99745.79
2018-02-02T19:05:21.627Z,99745.52
2018-02-02T19:07:51.320Z,99748.08
2018-02-02T19:10:20.453Z,99756.20
2018-02-02T19:12:49.807Z,99754.70
2018-02-02T19:15:18.594Z,99755.69
2018-02-02T19:17:47.537Z,99762.92
2018-02-02T19:20:17.552Z,99761.48
2018-02-02T19:22:48.540Z,99764.48
2018-02-02T19:25:17.556Z,99767.23
2018-02-02T19:27:47.065Z,99773.86
2018-02-02T19:30:16.330Z,99773.91
2018-02-02T19:32:45.801Z,99778.59
2018-02-02T19:35:16.210Z,99771.70
2018-02-02T19:37:45.092Z,99781.55
2018-02-02T19:40:13.976Z,99778.97
2018-02-02T19:42:43.423Z,99778.43
2018-02-02T19:45:13.587Z,99779.56
2018-02-02T19:47:42.753Z,99779.45
2018-02-02T19:50:12.397Z,99784.39
2018-02-02T19:52:41.445Z,99784.67
2018-02-02T19:55:10.290Z,99784.23
2018-02-02T19:57:39.473Z,99782.48
2018-02-02T20:00:08.326Z,99789.02
2018-02-02T20:02:38.736Z,99793.86
2018-02-02T20:05:07.935Z,99792.06
2018-02-02T20:07:37.015Z,99795.59
2018-02-02T20:10:06.128Z,99792.52
2018-02-02T20:12:36.242Z,99791.54
2018-02-02T20:15:05.507Z,99789.45
2018-02-02T20:17:34.572Z,99793.45
2018-02-02T20:20:05.088Z,99790.05
2018-02-02T20:22:34.341Z,99791.78
2018-02-02T20:25:03.665Z,99795.75
2018-02-02T20:27:33.037Z,99797.05
2018-02-02T20:30:02.896Z,99799.16
2018-02-02T20:32:32.011Z,99803.61
2018-02-02T20:35:01.208Z,99800.16
2018-02-02T20:37:30.540Z,99799.95
2018-02-02T20:39:59.507Z,99799.65
2018-02-02T20:42:28.808Z,99802.03
2018-02-02T20:44:57.665Z,99799.55
2018-02-02T20:47:26.753Z,99797.95
2018-02-02T20:49:56.010Z,99800.98
2018-02-02T20:52:25.684Z,99804.33
2018-02-02T20:54:54.795Z,99802.48
2018-02-02T20:57:24.635Z,99797.95
2018-02-02T20:59:53.447Z,99805.44
2018-02-02T21:02:22.447Z,99803.45
2018-02-02T21:04:52.750Z,99798.67
2018-02-02T21:07:21.542Z,99804.97
2018-02-02T21:09:50.569Z,99804.05
2018-02-02T21:12:22.917Z,99801.63
2018-02-02T21:14:51.774Z,99795.11
2018-02-02T21:17:20.573Z,99801.09
2018-02-02T21:19:49.745Z,99799.23
2018-02-02T21:22:18.519Z,99796.74
2018-02-02T21:24:47.640Z,99802.08
2018-02-02T21:27:16.462Z,99807.33
2018-02-02T21:29:45.243Z,99800.77
2018-02-02T21:32:14.535Z,99804.74
2018-02-02T21:34:44.664Z,99803.96
2018-02-02T21:37:13.453Z,99811.88
2018-02-02T21:39:43.825Z,99809.35
2018-02-02T21:42:12.637Z,99813.80
2018-02-02T21:44:41.483Z,99816.02
2018-02-02T21:47:10.613Z,99807.87
2018-02-02T21:49:39.442Z,99820.36
2018-02-02T21:52:08.240Z,99820.25
2018-02-02T21:54:40.212Z,99820.98
2018-02-02T21:57:08.995Z,99821.28
2018-02-02T21:59:38.122Z,99821.07
2018-02-02T22:02:07.269Z,99824.94
2018-02-02T22:04:36.893Z,99823.83
2018-02-02T22:07:05.902Z,99820.36
2018-02-02T22:09:37.131Z,99819.05
2018-02-02T22:12:06.740Z,99818.70
2018-02-02T22:14:37.085Z,99816.44
2018-02-02T22:17:06.185Z,99819.98
2018-02-02T22:19:36.335Z,99818.16
2018-02-02T22:22:05.456Z,99822.09
2018-02-02T22:24:37.289Z,99820.53
2018-02-02T22:27:07.285Z,99817.94
2018-02-02T22:29:37.851Z,99817.64
2018-02-02T22:32:07.289Z,99817.71
2018-02-02T22:34:37.837Z,99817.23
2018-02-02T22:37:06.723Z,99814.72
2018-02-02T22:39:36.770Z,99814.44
2018-02-02T22:42:05.774Z,99821.48
2018-02-02T22:44:36.029Z,99818.20
2018-02-02T22:47:06.363Z,99818.04
2018-02-02T22:49:37.658Z,99822.97
2018-02-02T22:52:06.452Z,99822.03
2018-02-02T22:54:36.667Z,99823.92
2018-02-02T22:57:05.614Z,99822.12
2018-02-02T22:59:36.620Z,99820.85
2018-02-02T23:02:06.585Z,99823.03
2018-02-02T23:04:36.724Z,99821.53
2018-02-02T23:07:06.051Z,99818.78
2018-02-02T23:09:36.875Z,99818.25
2018-02-02T23:12:05.889Z,99819.28
2018-02-02T23:14:35.601Z,99818.16
2018-02-02T23:17:04.868Z,99819.89
2018-02-02T23:19:35.337Z,99817.73
2018-02-02T23:22:05.954Z,99821.05
2018-02-02T23:24:36.520Z,99822.69
2018-02-02T23:27:05.548Z,99812.03
2018-02-02T23:29:35.756Z,99818.63
2018-02-02T23:32:05.590Z,99814.08
2018-02-02T23:34:35.779Z,99813.63
2018-02-02T23:37:05.036Z,99815.80
2018-02-02T23:39:35.042Z,99800.16
2018-02-02T23:42:04.967Z,99803.72
2018-02-02T23:44:36.136Z,99808.47
2018-02-02T23:47:04.964Z,99805.78
2018-02-02T23:49:35.133Z,99808.34
2018-02-02T23:52:05.145Z,99810.52
2018-02-02T23:54:35.404Z,99802.89
2018-02-02T23:57:04.689Z,99804.84
2018-02-02T23:59:34.786Z,99805.63
